sensor_id;sensor_type;location;lat;lon;timestamp;temperature;humidity
1992;DHT22;997;48.448;8.924;2024-01-06T00:00:30;8.20;99.90
1992;DHT22;997;48.448;8.924;2024-01-06T00:02:56;8.10;99.90
1992;DHT22;997;48.448;8.924;2024-01-06T00:05:21;8.10;99.90
1992;DHT22;997;48.448;8.924;2024-01-06T00:07:47;8.20;99.90
1992;DHT22;997;48.448;8.924;2024-01-06T00:10:13;8.10;99.90
1992;DHT22;997;48.448;8.924;2024-01-06T00:12:38;8.20;99.90
1992;DHT22;997;48.448;8.924;2024-01-06T00:15:04;8.10;99.90
1992;DHT22;997;48.448;8.924;2024-01-06T00:17:30;8.20;99.90
1992;DHT22;997;48.448;8.924;2024-01-06T00:19:57;8.20;99.90
1992;DHT22;997;48.448;8.924;2024-01-06T00:22:23;8.20;99.90
1992;DHT22;997;48.448;8.924;2024-01-06T00:24:48;8.20;99.90
1992;DHT22;997;48.448;8.924;2024-01-06T00:27:14;8.10;99.90
1992;DHT22;997;48.448;8.924;2024-01-06T00:29:41;8.10;99.90
1992;DHT22;997;48.448;8.924;2024-01-06T00:32:07;8.00;99.90
1992;DHT22;997;48.448;8.924;2024-01-06T00:34:32;7.90;99.90
1992;DHT22;997;48.448;8.924;2024-01-06T00:36:58;7.80;99.90
1992;DHT22;997;48.448;8.924;2024-01-06T00:39:24;7.90;99.90
1992;DHT22;997;48.448;8.924;2024-01-06T00:41:49;7.90;99.90
1992;DHT22;997;48.448;8.924;2024-01-06T00:44:16;7.90;99.90
1992;DHT22;997;48.448;8.924;2024-01-06T00:46:41;7.80;99.90
1992;DHT22;997;48.448;8.924;2024-01-06T00:49:07;7.80;99.90
1992;DHT22;997;48.448;8.924;2024-01-06T00:51:33;7.80;99.90
1992;DHT22;997;48.448;8.924;2024-01-06T00:53:58;7.70;99.90
1992;DHT22;997;48.448;8.924;2024-01-06T00:56:24;7.80;99.90
1992;DHT22;997;48.448;8.924;2024-01-06T00:58:50;7.80;99.90
1992;DHT22;997;48.448;8.924;2024-01-06T01:01:15;7.80;99.90
1992;DHT22;997;48.448;8.924;2024-01-06T01:03:41;7.90;99.90
1992;DHT22;997;48.448;8.924;2024-01-06T01:06:07;7.90;99.90
1992;DHT22;997;48.448;8.924;2024-01-06T01:08:33;8.00;99.90
1992;DHT22;997;48.448;8.924;2024-01-06T01:10:59;8.00;99.90
1992;DHT22;997;48.448;8.924;2024-01-06T01:13:24;7.90;99.90
1992;DHT22;997;48.448;8.924;2024-01-06T01:15:50;8.00;99.90
1992;DHT22;997;48.448;8.924;2024-01-06T01:18:16;8.00;99.90
1992;DHT22;997;48.448;8.924;2024-01-06T01:20:42;8.00;99.90
1992;DHT22;997;48.448;8.924;2024-01-06T01:23:08;8.00;99.90
1992;DHT22;997;48.448;8.924;2024-01-06T01:25:33;8.00;99.90
1992;DHT22;997;48.448;8.924;2024-01-06T01:27:59;8.00;99.90
1992;DHT22;997;48.448;8.924;2024-01-06T01:30:25;8.00;99.90
1992;DHT22;997;48.448;8.924;2024-01-06T01:32:50;7.90;99.90
1992;DHT22;997;48.448;8.924;2024-01-06T01:35:16;8.00;99.90
1992;DHT22;997;48.448;8.924;2024-01-06T01:37:42;7.90;99.90
1992;DHT22;997;48.448;8.924;2024-01-06T01:40:08;8.00;99.90
1992;DHT22;997;48.448;8.924;2024-01-06T01:42:33;7.90;99.90
1992;DHT22;997;48.448;8.924;2024-01-06T01:44:59;7.90;99.90
1992;DHT22;997;48.448;8.924;2024-01-06T01:47:25;7.80;99.90
1992;DHT22;997;48.448;8.924;2024-01-06T01:49:53;7.80;99.90
1992;DHT22;997;48.448;8.924;2024-01-06T01:52:20;7.70;99.90
1992;DHT22;997;48.448;8.924;2024-01-06T01:54:46;7.50;99.90
1992;DHT22;997;48.448;8.924;2024-01-06T01:57:13;7.50;99.90
1992;DHT22;997;48.448;8.924;2024-01-06T01:59:39;7.50;99.90
1992;DHT22;997;48.448;8.924;2024-01-06T02:02:06;7.40;99.90
1992;DHT22;997;48.448;8.924;2024-01-06T02:04:32;7.30;99.90
1992;DHT22;997;48.448;8.924;2024-01-06T02:06:57;7.40;99.90
1992;DHT22;997;48.448;8.924;2024-01-06T02:09:23;7.40;99.90
1992;DHT22;997;48.448;8.924;2024-01-06T02:11:52;7.40;99.90
1992;DHT22;997;48.448;8.924;2024-01-06T02:14:18;7.40;99.90
1992;DHT22;997;48.448;8.924;2024-01-06T02:16:44;7.40;99.90
1992;DHT22;997;48.448;8.924;2024-01-06T02:19:11;7.40;99.90
1992;DHT22;997;48.448;8.924;2024-01-06T02:21:42;7.40;99.90
1992;DHT22;997;48.448;8.924;2024-01-06T02:24:07;7.40;99.90
1992;DHT22;997;48.448;8.924;2024-01-06T02:26:33;7.40;99.90
1992;DHT22;997;48.448;8.924;2024-01-06T02:28:59;7.40;99.90
1992;DHT22;997;48.448;8.924;2024-01-06T02:31:24;7.40;99.90
1992;DHT22;997;48.448;8.924;2024-01-06T02:33:50;7.50;99.90
1992;DHT22;997;48.448;8.924;2024-01-06T02:36:16;7.40;99.90
1992;DHT22;997;48.448;8.924;2024-01-06T02:38:41;7.40;99.90
1992;DHT22;997;48.448;8.924;2024-01-06T02:41:07;7.40;99.90
1992;DHT22;997;48.448;8.924;2024-01-06T02:43:33;7.50;99.90
1992;DHT22;997;48.448;8.924;2024-01-06T02:45:58;7.50;99.90
1992;DHT22;997;48.448;8.924;2024-01-06T02:48:24;7.40;99.90
1992;DHT22;997;48.448;8.924;2024-01-06T02:50:50;7.40;99.90
1992;DHT22;997;48.448;8.924;2024-01-06T02:53:16;7.40;99.90
1992;DHT22;997;48.448;8.924;2024-01-06T02:55:41;7.40;99.90
1992;DHT22;997;48.448;8.924;2024-01-06T02:58:07;7.40;99.90
1992;DHT22;997;48.448;8.924;2024-01-06T03:00:33;7.40;99.90
1992;DHT22;997;48.448;8.924;2024-01-06T03:02:58;7.30;99.90
1992;DHT22;997;48.448;8.924;2024-01-06T03:05:24;7.30;99.90
1992;DHT22;997;48.448;8.924;2024-01-06T03:07:49;7.30;99.90
1992;DHT22;997;48.448;8.924;2024-01-06T03:10:15;7.40;99.90
1992;DHT22;997;48.448;8.924;2024-01-06T03:12:41;7.40;99.90
1992;DHT22;997;48.448;8.924;2024-01-06T03:15:06;7.40;99.90
1992;DHT22;997;48.448;8.924;2024-01-06T03:17:32;7.50;99.90
1992;DHT22;997;48.448;8.924;2024-01-06T03:19:58;7.50;99.90
1992;DHT22;997;48.448;8.924;2024-01-06T03:22:23;7.50;99.90
1992;DHT22;997;48.448;8.924;2024-01-06T03:24:49;7.50;99.90
1992;DHT22;997;48.448;8.924;2024-01-06T03:27:15;7.60;99.90
1992;DHT22;997;48.448;8.924;2024-01-06T03:29:40;7.60;99.90
1992;DHT22;997;48.448;8.924;2024-01-06T03:32:06;7.60;99.90
1992;DHT22;997;48.448;8.924;2024-01-06T03:34:32;7.60;99.90
1992;DHT22;997;48.448;8.924;2024-01-06T03:36:57;7.60;99.90
1992;DHT22;997;48.448;8.924;2024-01-06T03:39:23;7.50;99.90
1992;DHT22;997;48.448;8.924;2024-01-06T03:41:49;7.60;99.90
1992;DHT22;997;48.448;8.924;2024-01-06T03:44:14;7.60;99.90
1992;DHT22;997;48.448;8.924;2024-01-06T03:46:40;7.50;99.90
1992;DHT22;997;48.448;8.924;2024-01-06T03:49:06;7.50;99.90
1992;DHT22;997;48.448;8.924;2024-01-06T03:51:31;7.60;99.90
1992;DHT22;997;48.448;8.924;2024-01-06T03:53:57;7.50;99.90
1992;DHT22;997;48.448;8.924;2024-01-06T03:56:23;7.50;99.90
1992;DHT22;997;48.448;8.924;2024-01-06T03:58:48;7.50;99.90
1992;DHT22;997;48.448;8.924;2024-01-06T04:01:14;7.40;99.90
1992;DHT22;997;48.448;8.924;2024-01-06T04:03:39;7.50;99.90
1992;DHT22;997;48.448;8.924;2024-01-06T04:06:06;7.30;99.90
1992;DHT22;997;48.448;8.924;2024-01-06T04:08:31;7.40;99.90
1992;DHT22;997;48.448;8.924;2024-01-06T04:10:57;7.40;99.90
1992;DHT22;997;48.448;8.924;2024-01-06T04:13:23;7.20;99.90
1992;DHT22;997;48.448;8.924;2024-01-06T04:15:50;7.20;99.90
1992;DHT22;997;48.448;8.924;2024-01-06T04:18:16;7.10;99.90
1992;DHT22;997;48.448;8.924;2024-01-06T04:20:42;7.10;99.90
1992;DHT22;997;48.448;8.924;2024-01-06T04:23:07;7.10;99.90
1992;DHT22;997;48.448;8.924;2024-01-06T04:25:33;7.20;99.90
1992;DHT22;997;48.448;8.924;2024-01-06T04:27:59;7.20;99.90
1992;DHT22;997;48.448;8.924;2024-01-06T04:30:24;7.20;99.90
1992;DHT22;997;48.448;8.924;2024-01-06T04:32:51;7.20;99.90
1992;DHT22;997;48.448;8.924;2024-01-06T04:35:17;7.20;99.90
1992;DHT22;997;48.448;8.924;2024-01-06T04:37:43;7.20;99.90
1992;DHT22;997;48.448;8.924;2024-01-06T04:40:10;7.20;99.90
1992;DHT22;997;48.448;8.924;2024-01-06T04:42:36;7.10;99.90
1992;DHT22;997;48.448;8.924;2024-01-06T04:45:01;7.10;99.90
1992;DHT22;997;48.448;8.924;2024-01-06T04:47:28;7.10;99.90
1992;DHT22;997;48.448;8.924;2024-01-06T04:49:56;7.10;99.90
1992;DHT22;997;48.448;8.924;2024-01-06T04:52:22;7.00;99.90
1992;DHT22;997;48.448;8.924;2024-01-06T04:54:47;7.00;99.90
1992;DHT22;997;48.448;8.924;2024-01-06T04:57:13;6.90;99.90
1992;DHT22;997;48.448;8.924;2024-01-06T04:59:39;6.90;99.90
1992;DHT22;997;48.448;8.924;2024-01-06T05:02:05;6.90;99.90
1992;DHT22;997;48.448;8.924;2024-01-06T05:04:31;7.00;99.90
1992;DHT22;997;48.448;8.924;2024-01-06T05:06:58;7.00;99.90
1992;DHT22;997;48.448;8.924;2024-01-06T05:09:25;7.00;99.90
1992;DHT22;997;48.448;8.924;2024-01-06T05:11:50;7.00;99.90
1992;DHT22;997;48.448;8.924;2024-01-06T05:14:16;7.00;99.90
1992;DHT22;997;48.448;8.924;2024-01-06T05:16:41;7.10;99.90
1992;DHT22;997;48.448;8.924;2024-01-06T05:19:08;7.10;99.90
1992;DHT22;997;48.448;8.924;2024-01-06T05:21:34;7.10;99.90
1992;DHT22;997;48.448;8.924;2024-01-06T05:24:00;7.00;99.90
1992;DHT22;997;48.448;8.924;2024-01-06T05:26:26;7.00;99.90
1992;DHT22;997;48.448;8.924;2024-01-06T05:28:52;7.00;99.90
1992;DHT22;997;48.448;8.924;2024-01-06T05:31:18;6.90;99.90
1992;DHT22;997;48.448;8.924;2024-01-06T05:33:44;6.80;99.90
1992;DHT22;997;48.448;8.924;2024-01-06T05:36:09;6.80;99.90
1992;DHT22;997;48.448;8.924;2024-01-06T05:38:36;6.70;99.90
1992;DHT22;997;48.448;8.924;2024-01-06T05:41:02;6.70;99.90
1992;DHT22;997;48.448;8.924;2024-01-06T05:43:28;6.70;99.90
1992;DHT22;997;48.448;8.924;2024-01-06T05:45:53;6.80;99.90
1992;DHT22;997;48.448;8.924;2024-01-06T05:48:19;6.70;99.90
1992;DHT22;997;48.448;8.924;2024-01-06T05:50:45;6.90;99.90
1992;DHT22;997;48.448;8.924;2024-01-06T05:53:11;6.80;99.90
1992;DHT22;997;48.448;8.924;2024-01-06T05:55:37;6.80;99.90
1992;DHT22;997;48.448;8.924;2024-01-06T05:58:04;6.80;99.90
1992;DHT22;997;48.448;8.924;2024-01-06T06:00:29;6.80;99.90
1992;DHT22;997;48.448;8.924;2024-01-06T06:02:57;6.80;99.90
1992;DHT22;997;48.448;8.924;2024-01-06T06:05:23;6.70;99.90
1992;DHT22;997;48.448;8.924;2024-01-06T06:07:48;6.70;99.90
1992;DHT22;997;48.448;8.924;2024-01-06T06:10:14;6.70;99.90
1992;DHT22;997;48.448;8.924;2024-01-06T06:12:41;6.70;99.90
1992;DHT22;997;48.448;8.924;2024-01-06T06:15:07;6.70;99.90
1992;DHT22;997;48.448;8.924;2024-01-06T06:17:33;6.70;99.90
1992;DHT22;997;48.448;8.924;2024-01-06T06:19:59;6.70;99.90
1992;DHT22;997;48.448;8.924;2024-01-06T06:22:26;6.80;99.90
1992;DHT22;997;48.448;8.924;2024-01-06T06:24:56;6.80;99.90
1992;DHT22;997;48.448;8.924;2024-01-06T06:27:23;6.80;99.90
1992;DHT22;997;48.448;8.924;2024-01-06T06:29:48;6.80;99.90
1992;DHT22;997;48.448;8.924;2024-01-06T06:32:14;6.70;99.90
1992;DHT22;997;48.448;8.924;2024-01-06T06:34:40;6.80;99.90
1992;DHT22;997;48.448;8.924;2024-01-06T06:37:05;6.80;99.90
1992;DHT22;997;48.448;8.924;2024-01-06T06:39:33;6.80;99.90
1992;DHT22;997;48.448;8.924;2024-01-06T06:42:01;6.80;99.90
1992;DHT22;997;48.448;8.924;2024-01-06T06:44:27;6.90;99.90
1992;DHT22;997;48.448;8.924;2024-01-06T06:46:52;6.80;99.90
1992;DHT22;997;48.448;8.924;2024-01-06T06:49:18;6.90;99.90
1992;DHT22;997;48.448;8.924;2024-01-06T06:51:44;6.90;99.90
1992;DHT22;997;48.448;8.924;2024-01-06T06:54:14;6.90;99.90
1992;DHT22;997;48.448;8.924;2024-01-06T06:56:41;6.90;99.90
1992;DHT22;997;48.448;8.924;2024-01-06T06:59:07;6.80;99.90
1992;DHT22;997;48.448;8.924;2024-01-06T07:01:33;6.80;99.90
1992;DHT22;997;48.448;8.924;2024-01-06T07:03:59;6.80;99.90
1992;DHT22;997;48.448;8.924;2024-01-06T07:06:25;6.80;99.90
1992;DHT22;997;48.448;8.924;2024-01-06T07:08:50;6.90;99.90
1992;DHT22;997;48.448;8.924;2024-01-06T07:11:16;6.90;99.90
1992;DHT22;997;48.448;8.924;2024-01-06T07:13:44;6.90;99.90
1992;DHT22;997;48.448;8.924;2024-01-06T07:16:10;6.90;99.90
1992;DHT22;997;48.448;8.924;2024-01-06T07:18:37;7.00;99.90
1992;DHT22;997;48.448;8.924;2024-01-06T07:21:04;7.00;99.90
1992;DHT22;997;48.448;8.924;2024-01-06T07:23:32;7.00;99.90
1992;DHT22;997;48.448;8.924;2024-01-06T07:25:58;7.00;99.90
1992;DHT22;997;48.448;8.924;2024-01-06T07:28:23;7.00;99.90
1992;DHT22;997;48.448;8.924;2024-01-06T07:30:49;7.00;99.90
1992;DHT22;997;48.448;8.924;2024-01-06T07:33:15;7.10;99.90
1992;DHT22;997;48.448;8.924;2024-01-06T07:35:40;7.00;99.90
1992;DHT22;997;48.448;8.924;2024-01-06T07:38:09;7.10;99.90
1992;DHT22;997;48.448;8.924;2024-01-06T07:40:36;7.00;99.90
1992;DHT22;997;48.448;8.924;2024-01-06T07:43:02;7.00;99.90
1992;DHT22;997;48.448;8.924;2024-01-06T07:45:27;7.00;99.90
1992;DHT22;997;48.448;8.924;2024-01-06T07:47:53;7.00;99.90
1992;DHT22;997;48.448;8.924;2024-01-06T07:50:19;7.00;99.90
1992;DHT22;997;48.448;8.924;2024-01-06T07:52:44;6.90;99.90
1992;DHT22;997;48.448;8.924;2024-01-06T07:55:10;7.00;99.90
1992;DHT22;997;48.448;8.924;2024-01-06T07:57:36;7.00;99.90
1992;DHT22;997;48.448;8.924;2024-01-06T08:00:01;7.00;99.90
1992;DHT22;997;48.448;8.924;2024-01-06T08:02:27;7.00;99.90
1992;DHT22;997;48.448;8.924;2024-01-06T08:04:53;7.00;99.90
1992;DHT22;997;48.448;8.924;2024-01-06T08:07:21;7.00;99.90
1992;DHT22;997;48.448;8.924;2024-01-06T08:09:47;7.00;99.90
1992;DHT22;997;48.448;8.924;2024-01-06T08:12:12;7.10;99.90
1992;DHT22;997;48.448;8.924;2024-01-06T08:14:38;7.10;99.90
1992;DHT22;997;48.448;8.924;2024-01-06T08:17:04;7.10;99.90
1992;DHT22;997;48.448;8.924;2024-01-06T08:19:29;7.00;99.90
1992;DHT22;997;48.448;8.924;2024-01-06T08:21:57;7.10;99.90
1992;DHT22;997;48.448;8.924;2024-01-06T08:24:22;7.00;99.90
1992;DHT22;997;48.448;8.924;2024-01-06T08:26:48;7.00;99.90
1992;DHT22;997;48.448;8.924;2024-01-06T08:29:14;7.10;99.90
1992;DHT22;997;48.448;8.924;2024-01-06T08:31:41;7.10;99.90
1992;DHT22;997;48.448;8.924;2024-01-06T08:34:07;7.10;99.90
1992;DHT22;997;48.448;8.924;2024-01-06T08:36:34;7.20;99.90
1992;DHT22;997;48.448;8.924;2024-01-06T08:39:00;7.20;99.90
1992;DHT22;997;48.448;8.924;2024-01-06T08:41:25;7.20;99.90
1992;DHT22;997;48.448;8.924;2024-01-06T08:43:51;7.20;99.90
1992;DHT22;997;48.448;8.924;2024-01-06T08:46:17;7.10;99.90
1992;DHT22;997;48.448;8.924;2024-01-06T08:48:42;7.20;99.90
1992;DHT22;997;48.448;8.924;2024-01-06T08:51:08;7.30;99.90
1992;DHT22;997;48.448;8.924;2024-01-06T08:53:34;7.30;99.90
1992;DHT22;997;48.448;8.924;2024-01-06T08:56:00;7.40;99.90
1992;DHT22;997;48.448;8.924;2024-01-06T08:58:25;7.30;99.90
1992;DHT22;997;48.448;8.924;2024-01-06T09:00:51;7.30;99.90
1992;DHT22;997;48.448;8.924;2024-01-06T09:03:19;7.40;99.90
1992;DHT22;997;48.448;8.924;2024-01-06T09:05:55;7.30;99.90
1992;DHT22;997;48.448;8.924;2024-01-06T09:08:21;7.40;99.90
1992;DHT22;997;48.448;8.924;2024-01-06T09:10:46;7.40;99.90
1992;DHT22;997;48.448;8.924;2024-01-06T09:13:13;7.40;99.90
1992;DHT22;997;48.448;8.924;2024-01-06T09:15:38;7.30;99.90
1992;DHT22;997;48.448;8.924;2024-01-06T09:18:04;7.20;99.90
1992;DHT22;997;48.448;8.924;2024-01-06T09:20:30;7.20;99.90
1992;DHT22;997;48.448;8.924;2024-01-06T09:22:55;7.20;99.90
1992;DHT22;997;48.448;8.924;2024-01-06T09:25:21;7.20;99.90
1992;DHT22;997;48.448;8.924;2024-01-06T09:27:50;7.30;99.90
1992;DHT22;997;48.448;8.924;2024-01-06T09:30:16;7.30;99.90
1992;DHT22;997;48.448;8.924;2024-01-06T09:32:42;7.40;99.90
1992;DHT22;997;48.448;8.924;2024-01-06T09:35:08;7.40;99.90
1992;DHT22;997;48.448;8.924;2024-01-06T09:37:33;7.40;99.90
1992;DHT22;997;48.448;8.924;2024-01-06T09:39:59;7.40;99.90
1992;DHT22;997;48.448;8.924;2024-01-06T09:42:25;7.40;99.90
1992;DHT22;997;48.448;8.924;2024-01-06T09:44:51;7.40;99.90
1992;DHT22;997;48.448;8.924;2024-01-06T09:47:18;7.40;99.90
1992;DHT22;997;48.448;8.924;2024-01-06T09:49:48;7.40;99.90
1992;DHT22;997;48.448;8.924;2024-01-06T09:52:15;7.30;99.90
1992;DHT22;997;48.448;8.924;2024-01-06T09:54:51;7.30;99.90
1992;DHT22;997;48.448;8.924;2024-01-06T09:57:17;7.20;99.90
1992;DHT22;997;48.448;8.924;2024-01-06T09:59:44;7.20;99.90
1992;DHT22;997;48.448;8.924;2024-01-06T10:02:14;7.10;99.90
1992;DHT22;997;48.448;8.924;2024-01-06T10:04:40;7.10;99.90
1992;DHT22;997;48.448;8.924;2024-01-06T10:07:06;7.20;99.90
1992;DHT22;997;48.448;8.924;2024-01-06T10:09:32;7.30;99.90
1992;DHT22;997;48.448;8.924;2024-01-06T10:11:57;7.50;99.90
1992;DHT22;997;48.448;8.924;2024-01-06T10:14:25;7.50;99.90
1992;DHT22;997;48.448;8.924;2024-01-06T10:16:54;7.50;99.90
1992;DHT22;997;48.448;8.924;2024-01-06T10:19:20;7.60;99.90
1992;DHT22;997;48.448;8.924;2024-01-06T10:21:46;7.50;99.90
1992;DHT22;997;48.448;8.924;2024-01-06T10:24:12;7.60;99.90
1992;DHT22;997;48.448;8.924;2024-01-06T10:26:39;7.50;99.90
1992;DHT22;997;48.448;8.924;2024-01-06T10:29:05;7.40;99.90
1992;DHT22;997;48.448;8.924;2024-01-06T10:31:31;7.40;99.90
1992;DHT22;997;48.448;8.924;2024-01-06T10:33:56;7.40;99.90
1992;DHT22;997;48.448;8.924;2024-01-06T10:36:23;7.40;99.90
1992;DHT22;997;48.448;8.924;2024-01-06T10:38:49;7.50;99.90
1992;DHT22;997;48.448;8.924;2024-01-06T10:41:16;7.50;99.90
1992;DHT22;997;48.448;8.924;2024-01-06T10:43:42;7.50;99.90
1992;DHT22;997;48.448;8.924;2024-01-06T10:46:09;7.50;99.90
1992;DHT22;997;48.448;8.924;2024-01-06T10:48:40;7.50;99.90
1992;DHT22;997;48.448;8.924;2024-01-06T10:51:09;7.40;99.90
1992;DHT22;997;48.448;8.924;2024-01-06T10:53:35;7.40;99.90
1992;DHT22;997;48.448;8.924;2024-01-06T10:56:08;7.50;99.90
1992;DHT22;997;48.448;8.924;2024-01-06T10:58:35;7.50;99.90
1992;DHT22;997;48.448;8.924;2024-01-06T11:01:12;7.30;99.90
1992;DHT22;997;48.448;8.924;2024-01-06T11:03:38;7.10;99.90
1992;DHT22;997;48.448;8.924;2024-01-06T11:06:08;6.90;99.90
1992;DHT22;997;48.448;8.924;2024-01-06T11:09:09;6.80;99.90
1992;DHT22;997;48.448;8.924;2024-01-06T11:11:38;6.80;99.90
1992;DHT22;997;48.448;8.924;2024-01-06T11:14:24;6.90;99.90
1992;DHT22;997;48.448;8.924;2024-01-06T11:16:51;6.90;99.90
1992;DHT22;997;48.448;8.924;2024-01-06T11:22:24;6.80;99.90
1992;DHT22;997;48.448;8.924;2024-01-06T11:24:51;6.80;99.90
1992;DHT22;997;48.448;8.924;2024-01-06T11:27:23;6.80;99.90
1992;DHT22;997;48.448;8.924;2024-01-06T11:29:52;6.70;99.90
1992;DHT22;997;48.448;8.924;2024-01-06T11:34:51;6.70;99.90
1992;DHT22;997;48.448;8.924;2024-01-06T11:37:35;6.70;99.90
1992;DHT22;997;48.448;8.924;2024-01-06T11:42:41;6.90;99.90
1992;DHT22;997;48.448;8.924;2024-01-06T11:45:08;7.00;99.90
1992;DHT22;997;48.448;8.924;2024-01-06T11:47:34;7.10;99.90
1992;DHT22;997;48.448;8.924;2024-01-06T11:50:01;7.00;99.90
1992;DHT22;997;48.448;8.924;2024-01-06T11:52:34;7.00;99.90
1992;DHT22;997;48.448;8.924;2024-01-06T11:55:00;7.00;99.90
1992;DHT22;997;48.448;8.924;2024-01-06T11:57:27;7.20;99.90
1992;DHT22;997;48.448;8.924;2024-01-06T11:59:53;7.30;99.90
1992;DHT22;997;48.448;8.924;2024-01-06T12:02:19;7.50;99.90
1992;DHT22;997;48.448;8.924;2024-01-06T12:04:52;7.60;99.90
1992;DHT22;997;48.448;8.924;2024-01-06T12:07:19;7.50;99.90
1992;DHT22;997;48.448;8.924;2024-01-06T12:09:49;7.40;99.90
1992;DHT22;997;48.448;8.924;2024-01-06T12:12:18;7.30;99.90
1992;DHT22;997;48.448;8.924;2024-01-06T12:14:44;7.30;99.90
1992;DHT22;997;48.448;8.924;2024-01-06T12:17:12;7.30;99.90
1992;DHT22;997;48.448;8.924;2024-01-06T12:19:39;7.40;99.90
1992;DHT22;997;48.448;8.924;2024-01-06T12:22:09;7.30;99.90
1992;DHT22;997;48.448;8.924;2024-01-06T12:24:35;7.30;99.90
1992;DHT22;997;48.448;8.924;2024-01-06T12:27:01;7.10;99.90
1992;DHT22;997;48.448;8.924;2024-01-06T12:29:28;7.00;99.90
1992;DHT22;997;48.448;8.924;2024-01-06T12:31:59;6.90;99.90
1992;DHT22;997;48.448;8.924;2024-01-06T12:34:25;7.00;99.90
1992;DHT22;997;48.448;8.924;2024-01-06T12:36:53;6.90;99.90
1992;DHT22;997;48.448;8.924;2024-01-06T12:39:20;6.80;99.90
1992;DHT22;997;48.448;8.924;2024-01-06T12:41:46;6.80;99.90
1992;DHT22;997;48.448;8.924;2024-01-06T12:44:11;6.80;99.90
1992;DHT22;997;48.448;8.924;2024-01-06T12:46:38;6.80;99.90
1992;DHT22;997;48.448;8.924;2024-01-06T12:49:04;6.80;99.90
1992;DHT22;997;48.448;8.924;2024-01-06T12:51:29;6.90;99.90
1992;DHT22;997;48.448;8.924;2024-01-06T12:53:55;6.90;99.90
1992;DHT22;997;48.448;8.924;2024-01-06T12:56:21;6.80;99.90
1992;DHT22;997;48.448;8.924;2024-01-06T12:58:46;6.70;99.90
1992;DHT22;997;48.448;8.924;2024-01-06T13:01:12;6.80;99.90
1992;DHT22;997;48.448;8.924;2024-01-06T13:03:38;6.90;99.90
1992;DHT22;997;48.448;8.924;2024-01-06T13:06:04;7.00;99.90
1992;DHT22;997;48.448;8.924;2024-01-06T13:08:30;7.10;99.90
1992;DHT22;997;48.448;8.924;2024-01-06T13:10:56;7.00;99.90
1992;DHT22;997;48.448;8.924;2024-01-06T13:13:22;6.70;99.90
1992;DHT22;997;48.448;8.924;2024-01-06T13:15:48;6.70;99.90
1992;DHT22;997;48.448;8.924;2024-01-06T13:18:13;6.80;99.90
1992;DHT22;997;48.448;8.924;2024-01-06T13:20:39;6.80;99.90
1992;DHT22;997;48.448;8.924;2024-01-06T13:23:07;7.00;99.90
1992;DHT22;997;48.448;8.924;2024-01-06T13:25:34;7.20;99.90
1992;DHT22;997;48.448;8.924;2024-01-06T13:28:00;7.30;99.90
1992;DHT22;997;48.448;8.924;2024-01-06T13:30:26;7.50;99.90
1992;DHT22;997;48.448;8.924;2024-01-06T13:32:53;7.30;99.90
1992;DHT22;997;48.448;8.924;2024-01-06T13:35:22;7.10;99.90
1992;DHT22;997;48.448;8.924;2024-01-06T13:37:51;7.10;99.90
1992;DHT22;997;48.448;8.924;2024-01-06T13:40:17;7.30;99.90
1992;DHT22;997;48.448;8.924;2024-01-06T13:42:46;7.40;99.90
1992;DHT22;997;48.448;8.924;2024-01-06T13:45:12;7.30;99.90
1992;DHT22;997;48.448;8.924;2024-01-06T13:47:39;7.10;99.90
1992;DHT22;997;48.448;8.924;2024-01-06T13:50:08;7.00;99.90
1992;DHT22;997;48.448;8.924;2024-01-06T13:52:34;6.70;99.90
1992;DHT22;997;48.448;8.924;2024-01-06T13:55:01;6.70;99.90
1992;DHT22;997;48.448;8.924;2024-01-06T13:57:27;6.70;99.90
1992;DHT22;997;48.448;8.924;2024-01-06T13:59:52;6.70;99.90
1992;DHT22;997;48.448;8.924;2024-01-06T14:02:18;6.70;99.90
1992;DHT22;997;48.448;8.924;2024-01-06T14:04:43;6.70;99.90
1992;DHT22;997;48.448;8.924;2024-01-06T14:07:09;6.70;99.90
1992;DHT22;997;48.448;8.924;2024-01-06T14:09:36;6.70;99.90
1992;DHT22;997;48.448;8.924;2024-01-06T14:12:02;6.70;99.90
1992;DHT22;997;48.448;8.924;2024-01-06T14:14:31;6.70;99.90
1992;DHT22;997;48.448;8.924;2024-01-06T14:16:57;6.80;99.90
1992;DHT22;997;48.448;8.924;2024-01-06T14:19:24;7.10;99.90
1992;DHT22;997;48.448;8.924;2024-01-06T14:21:49;7.20;99.90
1992;DHT22;997;48.448;8.924;2024-01-06T14:24:16;7.10;99.90
1992;DHT22;997;48.448;8.924;2024-01-06T14:26:49;7.30;99.90
1992;DHT22;997;48.448;8.924;2024-01-06T14:29:15;7.30;99.90
1992;DHT22;997;48.448;8.924;2024-01-06T14:31:42;7.40;99.90
1992;DHT22;997;48.448;8.924;2024-01-06T14:34:08;7.40;99.90
1992;DHT22;997;48.448;8.924;2024-01-06T14:36:33;7.40;99.90
1992;DHT22;997;48.448;8.924;2024-01-06T14:38:59;7.60;99.90
1992;DHT22;997;48.448;8.924;2024-01-06T14:41:26;7.50;99.90
1992;DHT22;997;48.448;8.924;2024-01-06T14:43:52;7.60;99.90
1992;DHT22;997;48.448;8.924;2024-01-06T14:46:17;7.70;99.90
1992;DHT22;997;48.448;8.924;2024-01-06T14:48:44;7.40;99.90
1992;DHT22;997;48.448;8.924;2024-01-06T14:51:10;7.40;99.90
1992;DHT22;997;48.448;8.924;2024-01-06T14:53:35;7.50;99.90
1992;DHT22;997;48.448;8.924;2024-01-06T14:56:01;7.60;99.90
1992;DHT22;997;48.448;8.924;2024-01-06T14:58:29;7.60;99.90
1992;DHT22;997;48.448;8.924;2024-01-06T15:00:55;7.60;99.90
1992;DHT22;997;48.448;8.924;2024-01-06T15:03:20;7.60;99.90
1992;DHT22;997;48.448;8.924;2024-01-06T15:05:47;7.70;99.90
1992;DHT22;997;48.448;8.924;2024-01-06T15:08:13;7.60;99.90
1992;DHT22;997;48.448;8.924;2024-01-06T15:10:38;7.60;99.90
1992;DHT22;997;48.448;8.924;2024-01-06T15:13:04;7.60;99.90
1992;DHT22;997;48.448;8.924;2024-01-06T15:15:30;7.60;99.90
1992;DHT22;997;48.448;8.924;2024-01-06T15:17:55;7.60;99.90
1992;DHT22;997;48.448;8.924;2024-01-06T15:20:21;7.50;99.90
1992;DHT22;997;48.448;8.924;2024-01-06T15:22:48;7.60;99.90
1992;DHT22;997;48.448;8.924;2024-01-06T15:25:14;7.60;99.90
1992;DHT22;997;48.448;8.924;2024-01-06T15:27:40;7.60;99.90
1992;DHT22;997;48.448;8.924;2024-01-06T15:30:06;7.60;99.90
1992;DHT22;997;48.448;8.924;2024-01-06T15:32:36;7.70;99.90
1992;DHT22;997;48.448;8.924;2024-01-06T15:35:03;7.60;99.90
1992;DHT22;997;48.448;8.924;2024-01-06T15:37:30;7.60;99.90
1992;DHT22;997;48.448;8.924;2024-01-06T15:39:56;7.60;99.90
1992;DHT22;997;48.448;8.924;2024-01-06T15:42:22;7.70;99.90
1992;DHT22;997;48.448;8.924;2024-01-06T15:44:48;7.80;99.90
1992;DHT22;997;48.448;8.924;2024-01-06T15:47:13;7.80;99.90
1992;DHT22;997;48.448;8.924;2024-01-06T15:49:39;7.70;99.90
1992;DHT22;997;48.448;8.924;2024-01-06T15:52:05;7.60;99.90
1992;DHT22;997;48.448;8.924;2024-01-06T15:54:33;7.60;99.90
1992;DHT22;997;48.448;8.924;2024-01-06T15:57:01;7.60;99.90
1992;DHT22;997;48.448;8.924;2024-01-06T15:59:27;7.70;99.90
1992;DHT22;997;48.448;8.924;2024-01-06T16:01:53;7.60;99.90
1992;DHT22;997;48.448;8.924;2024-01-06T16:04:19;7.60;99.90
1992;DHT22;997;48.448;8.924;2024-01-06T16:06:45;7.60;99.90
1992;DHT22;997;48.448;8.924;2024-01-06T16:09:12;7.70;99.90
1992;DHT22;997;48.448;8.924;2024-01-06T16:11:40;7.60;99.90
1992;DHT22;997;48.448;8.924;2024-01-06T16:14:06;7.40;99.90
1992;DHT22;997;48.448;8.924;2024-01-06T16:16:32;7.40;99.90
1992;DHT22;997;48.448;8.924;2024-01-06T16:18:58;7.30;99.90
1992;DHT22;997;48.448;8.924;2024-01-06T16:21:24;7.30;99.90
1992;DHT22;997;48.448;8.924;2024-01-06T16:23:52;7.40;99.90
1992;DHT22;997;48.448;8.924;2024-01-06T16:26:18;7.40;99.90
1992;DHT22;997;48.448;8.924;2024-01-06T16:28:45;7.30;99.90
1992;DHT22;997;48.448;8.924;2024-01-06T16:31:11;7.30;99.90
1992;DHT22;997;48.448;8.924;2024-01-06T16:33:36;7.30;99.90
1992;DHT22;997;48.448;8.924;2024-01-06T16:36:02;7.20;99.90